createdAt,value
2017-04-30T00:00:41.604Z,19.94
2017-04-30T00:01:25.049Z,19.87
2017-04-30T00:02:08.890Z,19.88
2017-04-30T00:02:50.835Z,19.92
2017-04-30T00:03:32.877Z,19.95
2017-04-30T00:04:14.164Z,19.86
2017-04-30T00:04:56.575Z,19.86
2017-04-30T00:05:41.572Z,19.87
2017-04-30T00:06:24.835Z,19.84
2017-04-30T00:07:07.048Z,19.83
2017-04-30T00:07:48.582Z,19.86
2017-04-30T00:08:31.630Z,19.84
2017-04-30T00:09:14.045Z,19.87
2017-04-30T00:09:55.807Z,19.92
2017-04-30T00:10:38.183Z,19.91
2017-04-30T00:11:19.869Z,19.92
2017-04-30T00:12:03.110Z,19.91
2017-04-30T00:12:44.289Z,19.86
2017-04-30T00:13:25.887Z,19.96
2017-04-30T00:14:07.320Z,19.86
2017-04-30T00:14:50.108Z,19.94
2017-04-30T00:15:32.307Z,19.87
2017-04-30T00:16:14.362Z,19.87
2017-04-30T00:16:56.315Z,19.94
2017-04-30T00:17:37.918Z,19.91
2017-04-30T00:18:27.732Z,19.92
2017-04-30T00:19:09.524Z,19.86
2017-04-30T00:19:51.426Z,19.87
2017-04-30T00:20:33.004Z,19.91
2017-04-30T00:21:14.490Z,19.91
2017-04-30T00:21:55.920Z,19.94
2017-04-30T00:22:37.369Z,19.86
2017-04-30T00:23:18.962Z,19.95
2017-04-30T00:24:01.099Z,19.87
2017-04-30T00:24:42.496Z,19.87
2017-04-30T00:25:24.896Z,19.83
2017-04-30T00:26:06.687Z,19.92
2017-04-30T00:26:47.857Z,19.87
2017-04-30T00:27:30.319Z,19.87
2017-04-30T00:28:12.594Z,19.88
2017-04-30T00:28:53.926Z,19.88
2017-04-30T00:29:35.741Z,19.95
2017-04-30T00:30:17.874Z,19.84
2017-04-30T00:30:59.580Z,19.87
2017-04-30T00:31:42.012Z,19.88
2017-04-30T00:32:23.761Z,19.86
2017-04-30T00:33:05.198Z,19.81
2017-04-30T00:33:47.577Z,19.83
2017-04-30T00:34:29.737Z,19.83
2017-04-30T00:35:11.876Z,19.84
2017-04-30T00:35:53.941Z,19.91
2017-04-30T00:36:36.676Z,19.87
2017-04-30T00:37:18.035Z,19.81
2017-04-30T00:38:00.133Z,19.77
2017-04-30T00:38:42.558Z,19.86
2017-04-30T00:39:23.967Z,19.94
2017-04-30T00:40:05.212Z,19.87
2017-04-30T00:40:48.366Z,19.88
2017-04-30T00:41:30.667Z,19.83
2017-04-30T00:42:12.978Z,19.83
2017-04-30T00:42:55.609Z,19.86
2017-04-30T00:43:38.758Z,19.81
2017-04-30T00:44:21.574Z,19.91
2017-04-30T00:45:03.753Z,19.92
2017-04-30T00:45:47.342Z,19.86
2017-04-30T00:46:30.193Z,19.88
2017-04-30T00:47:12.899Z,19.84
2017-04-30T00:49:29.757Z,19.87
2017-04-30T00:50:12.935Z,19.92
2017-04-30T00:50:56.668Z,19.86
2017-04-30T00:51:40.679Z,19.87
2017-04-30T00:52:24.902Z,19.87
2017-04-30T00:53:07.774Z,19.81
2017-04-30T00:53:49.919Z,19.91
2017-04-30T00:54:31.816Z,19.87
2017-04-30T00:55:14.406Z,19.86
2017-04-30T00:55:56.728Z,19.92
2017-04-30T00:56:39.270Z,19.92
2017-04-30T00:57:21.523Z,19.87
2017-04-30T00:58:03.419Z,19.86
2017-04-30T00:58:45.687Z,19.91
2017-04-30T00:59:28.162Z,19.87
2017-04-30T01:00:09.919Z,19.86
2017-04-30T01:00:51.604Z,19.84
2017-04-30T01:01:34.186Z,19.86
2017-04-30T01:02:17.051Z,19.87
2017-04-30T01:02:59.141Z,19.81
2017-04-30T01:03:41.506Z,19.81
2017-04-30T01:04:23.455Z,19.78
2017-04-30T01:05:06.261Z,19.81
2017-04-30T01:05:47.768Z,19.88
2017-04-30T01:06:29.471Z,19.8
2017-04-30T01:07:12.021Z,19.84
2017-04-30T01:07:54.990Z,19.81
2017-04-30T01:08:37.310Z,19.86
2017-04-30T01:09:19.034Z,19.78
2017-04-30T01:10:01.903Z,19.8
2017-04-30T01:10:44.060Z,19.81
2017-04-30T01:11:26.466Z,19.83
2017-04-30T01:12:08.525Z,19.81
2017-04-30T01:12:51.495Z,19.88
2017-04-30T01:13:33.669Z,19.83
2017-04-30T01:14:15.199Z,19.87
2017-04-30T01:14:58.048Z,19.83
2017-04-30T01:15:39.570Z,19.83
2017-04-30T01:16:21.413Z,19.77
2017-04-30T01:17:03.817Z,19.88
2017-04-30T01:17:47.507Z,19.83
2017-04-30T01:18:29.482Z,19.77
2017-04-30T01:19:11.414Z,19.78
2017-04-30T01:19:52.909Z,19.83
2017-04-30T01:20:34.681Z,19.81
2017-04-30T01:21:17.323Z,19.92
2017-04-30T01:21:59.567Z,19.81
2017-04-30T01:22:43.294Z,19.88
2017-04-30T01:23:27.623Z,19.77
2017-04-30T01:24:10.469Z,19.84
2017-04-30T01:24:53.131Z,19.83
2017-04-30T01:25:36.934Z,19.77
2017-04-30T01:26:19.155Z,19.78
2017-04-30T01:27:01.884Z,19.84
2017-04-30T01:27:44.964Z,19.81
2017-04-30T01:28:27.279Z,19.86
2017-04-30T01:29:09.489Z,19.78
2017-04-30T01:29:52.129Z,19.8
2017-04-30T01:30:34.143Z,19.81
2017-04-30T01:31:16.988Z,19.74
2017-04-30T01:31:59.947Z,19.81
2017-04-30T01:32:42.931Z,19.78
2017-04-30T01:33:25.210Z,19.87
2017-04-30T01:34:06.916Z,19.88
2017-04-30T01:34:48.882Z,19.77
2017-04-30T01:35:31.435Z,19.86
2017-04-30T01:36:13.916Z,19.77
2017-04-30T01:36:56.296Z,19.86
2017-04-30T01:37:37.794Z,19.88
2017-04-30T01:38:19.885Z,19.8
2017-04-30T01:39:03.101Z,19.74
2017-04-30T01:39:46.293Z,19.83
2017-04-30T01:40:27.763Z,19.76
2017-04-30T01:41:10.388Z,19.8
2017-04-30T01:41:52.501Z,19.8
2017-04-30T01:42:34.937Z,19.81
2017-04-30T01:43:16.358Z,19.88
2017-04-30T01:43:58.607Z,19.81
2017-04-30T01:44:40.454Z,19.78
2017-04-30T01:45:22.954Z,19.81
2017-04-30T01:46:04.761Z,19.78
2017-04-30T01:46:46.697Z,19.83
2017-04-30T01:47:28.359Z,19.8
2017-04-30T01:48:10.831Z,19.86
2017-04-30T01:48:59.550Z,19.88
2017-04-30T01:49:41.446Z,19.84
2017-04-30T01:50:23.583Z,19.78
2017-04-30T01:51:05.108Z,19.83
2017-04-30T01:51:46.889Z,19.78
2017-04-30T01:52:28.926Z,19.84
2017-04-30T01:53:11.474Z,19.78
2017-04-30T01:53:54.963Z,19.77
2017-04-30T01:54:38.455Z,19.81
2017-04-30T01:55:22.480Z,19.86
2017-04-30T01:56:05.489Z,19.83
2017-04-30T01:56:48.692Z,19.71
2017-04-30T01:57:31.504Z,19.84
2017-04-30T01:58:15.454Z,19.86
2017-04-30T01:58:57.560Z,19.81
2017-04-30T01:59:41.899Z,19.78
2017-04-30T02:00:24.977Z,19.8
2017-04-30T02:01:06.484Z,19.81
2017-04-30T02:01:49.306Z,19.83
2017-04-30T02:02:32.746Z,19.88
2017-04-30T02:03:16.289Z,19.84
2017-04-30T02:03:57.871Z,19.77
2017-04-30T02:04:39.014Z,19.78
2017-04-30T02:05:20.690Z,19.78
2017-04-30T02:06:02.797Z,19.83
2017-04-30T02:06:43.965Z,19.83
2017-04-30T02:07:27.349Z,19.83
2017-04-30T02:08:09.214Z,19.86
2017-04-30T02:08:53.498Z,19.69
2017-04-30T02:09:36.842Z,19.78
2017-04-30T02:10:19.425Z,19.81
2017-04-30T02:11:01.430Z,19.73
2017-04-30T02:11:44.044Z,19.86
2017-04-30T02:12:27.640Z,19.81
2017-04-30T02:13:09.854Z,19.86
2017-04-30T02:13:51.854Z,19.86
2017-04-30T02:14:34.961Z,19.77
2017-04-30T02:15:16.002Z,19.81
2017-04-30T02:15:58.007Z,19.88
2017-04-30T02:16:40.901Z,19.74
2017-04-30T02:17:23.255Z,19.83
2017-04-30T02:18:05.567Z,19.78
2017-04-30T02:18:48.846Z,19.78
2017-04-30T02:19:30.535Z,19.78
2017-04-30T02:20:14.902Z,19.76
2017-04-30T02:20:57.861Z,19.8
2017-04-30T02:21:41.359Z,19.78
2017-04-30T02:22:23.798Z,19.78
2017-04-30T02:23:06.522Z,19.81
2017-04-30T02:23:49.819Z,19.73
2017-04-30T02:24:32.486Z,19.78
2017-04-30T02:25:15.863Z,19.77
2017-04-30T02:25:58.990Z,19.83
2017-04-30T02:26:41.714Z,19.77
2017-04-30T02:27:26.015Z,19.69
2017-04-30T02:28:10.029Z,19.73
2017-04-30T02:30:12.264Z,19.86
2017-04-30T02:30:55.636Z,19.73
2017-04-30T02:31:39.043Z,19.77
2017-04-30T02:32:22.108Z,19.78
2017-04-30T02:33:06.279Z,19.76
2017-04-30T02:33:48.666Z,19.78
2017-04-30T02:34:30.808Z,19.81
2017-04-30T02:35:14.485Z,19.77
2017-04-30T02:35:56.987Z,19.74
2017-04-30T02:36:39.723Z,19.77
2017-04-30T02:37:21.426Z,19.76
2017-04-30T02:38:05.088Z,19.77
2017-04-30T02:38:47.520Z,19.76
2017-04-30T02:39:29.267Z,19.76
2017-04-30T02:40:12.793Z,19.78
2017-04-30T02:40:54.686Z,19.78
2017-04-30T02:41:39.650Z,19.8
2017-04-30T02:42:23.139Z,19.78
2017-04-30T02:43:06.119Z,19.78
2017-04-30T02:43:47.627Z,19.81
2017-04-30T02:44:32.171Z,19.78
2017-04-30T02:45:16.347Z,19.8
2017-04-30T02:46:00.120Z,19.78
2017-04-30T02:46:42.740Z,19.78
2017-04-30T02:47:26.286Z,19.81
2017-04-30T02:48:10.130Z,19.77
2017-04-30T02:48:53.642Z,19.78
2017-04-30T02:49:36.329Z,19.77
2017-04-30T02:50:19.573Z,19.77
2017-04-30T02:51:04.134Z,19.78
2017-04-30T02:51:48.151Z,19.74
2017-04-30T02:52:31.363Z,19.71
2017-04-30T02:53:15.489Z,19.77
2017-04-30T02:53:57.908Z,19.8
2017-04-30T02:54:42.145Z,19.78
2017-04-30T02:55:25.126Z,19.69
2017-04-30T02:56:09.791Z,19.78
2017-04-30T02:56:53.121Z,19.8
2017-04-30T02:57:36.224Z,19.74
2017-04-30T02:58:18.133Z,19.76
2017-04-30T02:59:00.630Z,19.76
2017-04-30T03:00:43.630Z,19.74
2017-04-30T03:01:26.747Z,19.78
2017-04-30T03:02:11.609Z,19.74
2017-04-30T03:02:56.287Z,19.77
2017-04-30T03:03:39.645Z,19.83
2017-04-30T03:04:22.185Z,19.81
2017-04-30T03:05:07.133Z,19.71
2017-04-30T03:05:50.170Z,19.78
2017-04-30T03:06:34.153Z,19.77
2017-04-30T03:07:17.286Z,19.81
2017-04-30T03:08:01.162Z,19.8
2017-04-30T03:08:45.157Z,19.76
2017-04-30T03:09:29.411Z,19.74
2017-04-30T03:10:12.843Z,19.76
2017-04-30T03:10:55.135Z,19.77
2017-04-30T03:11:39.655Z,19.77
2017-04-30T03:12:23.179Z,19.73
2017-04-30T03:13:05.220Z,19.74
2017-04-30T03:13:47.638Z,19.71
2017-04-30T03:14:31.153Z,19.78
2017-04-30T03:15:15.133Z,19.77
2017-04-30T03:15:59.406Z,19.77
2017-04-30T03:16:41.660Z,19.77
2017-04-30T03:17:25.161Z,19.74
2017-04-30T03:18:09.136Z,19.77
2017-04-30T03:18:51.642Z,19.83
2017-04-30T03:19:34.722Z,19.73
2017-04-30T03:20:17.831Z,19.74
2017-04-30T03:21:00.702Z,19.73
2017-04-30T03:21:43.769Z,19.8
2017-04-30T03:22:27.648Z,19.83
2017-04-30T03:23:12.163Z,19.74
2017-04-30T03:23:55.638Z,19.77
2017-04-30T03:24:38.703Z,19.69
2017-04-30T03:25:21.155Z,19.77
2017-04-30T03:26:04.509Z,19.74
2017-04-30T03:26:47.664Z,19.77
2017-04-30T03:27:32.680Z,19.73
2017-04-30T03:28:15.644Z,19.74
2017-04-30T03:29:00.194Z,19.71
2017-04-30T03:30:51.205Z,19.77
2017-04-30T03:31:35.216Z,19.66
2017-04-30T03:32:19.713Z,19.69
2017-04-30T03:33:01.866Z,19.69
2017-04-30T03:33:44.032Z,19.68
2017-04-30T03:34:26.569Z,19.66
2017-04-30T03:35:11.727Z,19.63
2017-04-30T03:35:55.197Z,19.78
2017-04-30T03:36:39.695Z,19.61
2017-04-30T03:37:23.991Z,19.68
2017-04-30T03:38:06.985Z,19.73
2017-04-30T03:38:48.866Z,19.63
2017-04-30T03:39:31.670Z,19.71
2017-04-30T03:40:14.325Z,19.68
2017-04-30T03:40:59.227Z,19.69
2017-04-30T03:41:43.219Z,19.73
2017-04-30T03:42:26.436Z,19.63
2017-04-30T03:43:09.315Z,19.69
2017-04-30T03:43:52.223Z,19.65
2017-04-30T03:44:34.526Z,19.66
2017-04-30T03:45:18.712Z,19.8
2017-04-30T03:46:01.728Z,19.66
2017-04-30T03:46:44.744Z,19.66
2017-04-30T03:47:29.699Z,19.68
2017-04-30T03:48:12.875Z,19.78
2017-04-30T03:48:57.282Z,19.69
2017-04-30T03:49:38.752Z,19.71
2017-04-30T03:50:21.430Z,19.63
2017-04-30T03:51:04.020Z,19.65
2017-04-30T03:51:47.707Z,19.65
2017-04-30T03:52:31.213Z,19.66
2017-04-30T03:53:13.273Z,19.65
2017-04-30T03:53:55.898Z,19.69
2017-04-30T03:54:38.409Z,19.77
2017-04-30T03:55:20.362Z,19.71
2017-04-30T03:56:02.091Z,19.65
2017-04-30T03:56:44.051Z,19.71
2017-04-30T03:57:26.268Z,19.76
2017-04-30T03:58:07.647Z,19.69
2017-04-30T03:58:50.137Z,19.66
2017-04-30T03:59:32.560Z,19.68
2017-04-30T04:00:15.084Z,19.62
2017-04-30T04:00:57.604Z,19.68
2017-04-30T04:01:39.401Z,19.69
2017-04-30T04:02:21.451Z,19.76
2017-04-30T04:03:03.886Z,19.68
2017-04-30T04:03:46.212Z,19.71
2017-04-30T04:04:27.783Z,19.69
2017-04-30T04:05:09.002Z,19.68
2017-04-30T04:05:50.178Z,19.65
2017-04-30T04:06:32.486Z,19.65
2017-04-30T04:07:15.734Z,19.76
2017-04-30T04:07:56.936Z,19.74
2017-04-30T04:08:39.202Z,19.61
2017-04-30T04:09:21.432Z,19.61
2017-04-30T04:10:03.566Z,19.56
2017-04-30T04:10:46.231Z,19.63
2017-04-30T04:11:29.142Z,19.59
2017-04-30T04:12:10.454Z,19.63
2017-04-30T04:12:52.811Z,19.62
2017-04-30T04:13:34.164Z,19.63
2017-04-30T04:14:17.161Z,19.59
2017-04-30T04:14:59.607Z,19.59
2017-04-30T04:15:41.917Z,19.58
2017-04-30T04:16:23.590Z,19.58
2017-04-30T04:17:05.620Z,19.61
2017-04-30T04:17:46.939Z,19.71
2017-04-30T04:18:28.853Z,19.68
2017-04-30T04:19:09.890Z,19.61
2017-04-30T04:19:52.632Z,19.66
2017-04-30T04:20:34.392Z,19.61
2017-04-30T04:21:16.751Z,19.61
2017-04-30T04:21:58.377Z,19.63
2017-04-30T04:22:40.229Z,19.62
2017-04-30T04:23:23.907Z,19.61
2017-04-30T04:24:07.400Z,19.66
2017-04-30T04:24:49.625Z,19.66
2017-04-30T04:25:30.726Z,19.58
2017-04-30T04:26:14.058Z,19.66
2017-04-30T04:26:56.738Z,19.63
2017-04-30T04:27:40.234Z,19.66
2017-04-30T04:28:24.092Z,19.66
2017-04-30T04:29:08.180Z,19.65
2017-04-30T04:31:11.926Z,19.73
2017-04-30T04:31:55.250Z,19.59
2017-04-30T04:32:39.412Z,19.56
2017-04-30T04:33:23.293Z,19.62
2017-04-30T04:34:05.900Z,19.62
2017-04-30T04:34:47.814Z,19.65
2017-04-30T04:35:31.419Z,19.63
2017-04-30T04:36:13.468Z,19.71
2017-04-30T04:36:57.037Z,19.62
2017-04-30T04:37:40.934Z,19.61
2017-04-30T04:38:22.432Z,19.56
2017-04-30T04:39:04.498Z,19.63
2017-04-30T04:39:48.051Z,19.61
2017-04-30T04:40:30.053Z,19.58
2017-04-30T04:41:13.951Z,19.59
2017-04-30T04:41:57.388Z,19.65
2017-04-30T04:42:41.902Z,19.62
2017-04-30T04:43:24.391Z,19.63
2017-04-30T04:44:07.710Z,19.59
2017-04-30T04:44:50.461Z,19.62
2017-04-30T04:45:34.882Z,19.63
2017-04-30T04:46:17.946Z,19.65
2017-04-30T04:47:01.236Z,19.62
2017-04-30T04:47:43.291Z,19.63
2017-04-30T04:48:25.815Z,19.61
2017-04-30T04:49:07.477Z,19.61
2017-04-30T04:49:49.473Z,19.61
2017-04-30T04:50:33.139Z,19.61
2017-04-30T04:51:15.907Z,19.65
2017-04-30T04:51:59.917Z,19.58
2017-04-30T04:52:42.413Z,19.61
2017-04-30T04:53:26.038Z,19.63
2017-04-30T04:54:08.897Z,19.65
2017-04-30T04:54:51.503Z,19.62
2017-04-30T04:55:35.228Z,19.59
2017-04-30T04:56:17.891Z,19.59
2017-04-30T04:57:00.875Z,19.62
2017-04-30T04:57:43.372Z,19.68
2017-04-30T04:58:25.825Z,19.58
2017-04-30T04:59:07.620Z,19.63
2017-04-30T04:59:49.025Z,19.59
2017-04-30T05:00:32.331Z,19.61
2017-04-30T05:01:13.884Z,19.69
2017-04-30T05:01:56.788Z,19.61
2017-04-30T05:02:38.188Z,19.61
2017-04-30T05:03:19.838Z,19.65
2017-04-30T05:04:01.409Z,19.61
2017-04-30T05:04:42.373Z,19.65
2017-04-30T05:05:24.839Z,19.61
2017-04-30T05:06:08.363Z,19.65
2017-04-30T05:06:50.746Z,19.69
2017-04-30T05:07:33.941Z,19.58
2017-04-30T05:08:17.114Z,19.76
2017-04-30T05:08:58.505Z,19.59
2017-04-30T05:09:42.370Z,19.62
2017-04-30T05:11:33.165Z,19.66
2017-04-30T05:12:14.408Z,19.68
2017-04-30T05:12:56.806Z,19.62
2017-04-30T05:13:38.803Z,19.61
2017-04-30T05:14:21.577Z,19.58
2017-04-30T05:15:03.404Z,19.66
2017-04-30T05:15:44.744Z,19.71
2017-04-30T05:16:27.322Z,19.76
2017-04-30T05:17:08.911Z,19.61
2017-04-30T05:17:49.953Z,19.62
2017-04-30T05:18:30.902Z,19.61
2017-04-30T05:19:12.130Z,19.65
2017-04-30T05:19:54.824Z,19.68
2017-04-30T05:20:37.103Z,19.63
2017-04-30T05:21:19.326Z,19.65
2017-04-30T05:22:02.559Z,19.71
2017-04-30T05:22:44.425Z,19.73
2017-04-30T05:23:27.607Z,19.76
2017-04-30T05:24:10.489Z,19.81
2017-04-30T05:24:52.138Z,19.8
2017-04-30T05:25:35.632Z,19.78
2017-04-30T05:26:18.324Z,19.8
2017-04-30T05:27:01.098Z,19.81
2017-04-30T05:27:44.102Z,19.84
2017-04-30T05:28:27.347Z,19.84
2017-04-30T05:29:10.611Z,19.92
2017-04-30T05:29:54.158Z,19.91
2017-04-30T05:30:37.440Z,19.92
2017-04-30T05:31:42.125Z,19.81
2017-04-30T05:32:23.855Z,19.96
2017-04-30T05:33:07.669Z,19.87
2017-04-30T05:33:51.140Z,19.88
2017-04-30T05:34:33.462Z,19.92
2017-04-30T05:35:17.077Z,20.05
2017-04-30T05:36:02.136Z,19.94
2017-04-30T05:36:43.919Z,19.96
2017-04-30T05:37:27.634Z,20.01
2017-04-30T05:38:11.476Z,20.05
2017-04-30T05:38:53.518Z,20.11
2017-04-30T05:39:36.758Z,20.01
2017-04-30T05:40:20.778Z,20.13
2017-04-30T05:42:12.768Z,20.14
2017-04-30T05:42:56.849Z,20.05
2017-04-30T05:43:40.776Z,20.13
2017-04-30T05:44:23.532Z,20.2
2017-04-30T05:45:08.284Z,20.24
2017-04-30T05:45:52.770Z,20.29
2017-04-30T05:46:35.817Z,20.24
2017-04-30T05:47:19.333Z,20.31
2017-04-30T05:48:02.467Z,20.41
2017-04-30T05:48:44.524Z,20.33
2017-04-30T05:49:28.352Z,20.38
2017-04-30T05:50:12.471Z,20.48
2017-04-30T05:50:55.267Z,20.47
2017-04-30T05:51:38.465Z,20.41
2017-04-30T05:52:22.810Z,20.48
2017-04-30T05:53:04.946Z,20.5
2017-04-30T05:53:47.780Z,20.48
2017-04-30T05:54:31.966Z,20.52
2017-04-30T05:55:16.300Z,20.51
2017-04-30T05:56:00.311Z,20.52
2017-04-30T05:56:43.826Z,20.55
2017-04-30T05:57:28.349Z,20.61
2017-04-30T05:58:11.563Z,20.61
2017-04-30T05:58:54.293Z,20.69
2017-04-30T05:59:35.511Z,20.61
2017-04-30T06:00:19.443Z,20.73
2017-04-30T06:01:02.332Z,20.77
2017-04-30T06:01:46.298Z,20.79
2017-04-30T06:02:30.238Z,20.74
2017-04-30T06:03:15.287Z,20.77
2017-04-30T06:03:58.484Z,20.8
2017-04-30T06:04:42.303Z,20.74
2017-04-30T06:05:25.993Z,20.72
2017-04-30T06:06:09.080Z,20.85
2017-04-30T06:06:53.556Z,20.76
2017-04-30T06:07:36.786Z,20.7
2017-04-30T06:08:20.037Z,20.8
2017-04-30T06:09:03.829Z,20.87
2017-04-30T06:09:48.420Z,20.8
2017-04-30T06:10:30.257Z,20.79
2017-04-30T06:12:47.317Z,20.84
2017-04-30T06:13:30.158Z,20.8
2017-04-30T06:14:14.435Z,20.88
2017-04-30T06:14:57.095Z,20.8
2017-04-30T06:15:40.456Z,20.8
2017-04-30T06:16:24.947Z,20.82
2017-04-30T06:17:09.948Z,20.88
2017-04-30T06:17:53.428Z,20.85
2017-04-30T06:18:34.813Z,20.91
2017-04-30T06:19:19.150Z,20.91
2017-04-30T06:20:02.121Z,20.95
2017-04-30T06:20:45.473Z,20.91
2017-04-30T06:21:28.959Z,20.92
2017-04-30T06:22:12.215Z,20.88
2017-04-30T06:22:56.946Z,21.01
2017-04-30T06:23:40.436Z,20.94
2017-04-30T06:24:25.114Z,20.99
2017-04-30T06:25:09.941Z,20.94
2017-04-30T06:25:52.634Z,20.97
2017-04-30T06:26:36.953Z,21.03
2017-04-30T06:27:20.968Z,21.04
2017-04-30T06:28:05.135Z,21.03
2017-04-30T06:28:49.219Z,21.1
2017-04-30T06:29:32.938Z,21.12
2017-04-30T06:30:18.039Z,21.19
2017-04-30T06:31:00.479Z,21.22
2017-04-30T06:31:44.962Z,21.19
2017-04-30T06:32:27.997Z,21.22
2017-04-30T06:33:11.463Z,21.28
2017-04-30T06:33:55.097Z,21.17
2017-04-30T06:34:38.429Z,21.27
2017-04-30T06:35:22.445Z,21.27
2017-04-30T06:36:05.086Z,21.35
2017-04-30T06:36:48.958Z,21.35
2017-04-30T06:37:31.415Z,21.29
2017-04-30T06:38:15.159Z,21.35
2017-04-30T06:38:58.989Z,21.37
2017-04-30T06:39:42.482Z,21.34
2017-04-30T06:40:26.413Z,21.49
2017-04-30T06:41:09.167Z,21.35
2017-04-30T06:41:51.789Z,21.37
2017-04-30T06:42:34.640Z,21.43
2017-04-30T06:43:17.148Z,21.46
2017-04-30T06:43:59.141Z,21.49
2017-04-30T06:44:42.459Z,21.53
2017-04-30T06:45:25.334Z,21.43
2017-04-30T06:46:08.953Z,21.58
2017-04-30T06:46:51.970Z,21.59
2017-04-30T06:47:35.110Z,21.64
2017-04-30T06:48:17.143Z,21.54
2017-04-30T06:49:00.480Z,21.64
2017-04-30T06:49:42.956Z,21.64
2017-04-30T06:50:26.093Z,21.64
2017-04-30T06:51:09.486Z,21.71
2017-04-30T06:51:53.968Z,21.62
2017-04-30T06:52:36.519Z,21.72
2017-04-30T06:53:20.529Z,21.74
2017-04-30T06:54:04.729Z,21.82
2017-04-30T06:54:46.989Z,21.84
2017-04-30T06:55:30.634Z,21.86
2017-04-30T06:56:13.832Z,21.83
2017-04-30T06:56:58.184Z,21.96
2017-04-30T06:57:41.475Z,21.94
2017-04-30T06:58:23.954Z,21.83
2017-04-30T06:59:06.966Z,21.9
2017-04-30T06:59:49.925Z,22.02
2017-04-30T07:00:33.487Z,22.02
2017-04-30T07:01:16.256Z,21.92
2017-04-30T07:01:58.966Z,21.98
2017-04-30T07:02:42.507Z,22.07
2017-04-30T07:03:26.276Z,22.09
2017-04-30T07:04:07.584Z,22.14
2017-04-30T07:04:51.507Z,22.14
2017-04-30T07:05:35.150Z,22.17
2017-04-30T07:06:17.383Z,22.1
2017-04-30T07:06:59.013Z,22.05
2017-04-30T07:07:40.255Z,22.09
2017-04-30T07:08:22.478Z,21.98
2017-04-30T07:09:05.171Z,22
2017-04-30T07:09:48.492Z,22.02
2017-04-30T07:10:29.563Z,21.84
2017-04-30T07:11:13.519Z,22.02
2017-04-30T07:11:55.809Z,22.05
2017-04-30T07:13:51.605Z,22.02
2017-04-30T07:14:34.723Z,21.92
2017-04-30T07:15:17.276Z,21.96
2017-04-30T07:16:00.355Z,21.94
2017-04-30T07:16:44.295Z,21.94
2017-04-30T07:17:29.261Z,21.92
2017-04-30T07:18:12.839Z,22
2017-04-30T07:18:56.268Z,21.82
2017-04-30T07:19:38.787Z,22
2017-04-30T07:20:21.582Z,21.9
2017-04-30T07:21:05.323Z,21.84
2017-04-30T07:21:49.295Z,21.83
2017-04-30T07:22:31.651Z,21.9
2017-04-30T07:23:14.420Z,21.86
2017-04-30T07:23:56.756Z,21.94
2017-04-30T07:24:41.643Z,22.03
2017-04-30T07:25:25.773Z,22
2017-04-30T07:26:09.188Z,22.1
2017-04-30T07:26:52.797Z,22.12
2017-04-30T07:27:36.775Z,22.17
2017-04-30T07:28:18.991Z,22.2
2017-04-30T07:29:01.330Z,22.17
2017-04-30T07:29:44.803Z,22.28
2017-04-30T07:30:27.926Z,22.27
2017-04-30T07:31:11.631Z,22.3
2017-04-30T07:31:55.783Z,22.3
2017-04-30T07:34:13.896Z,22.33
2017-04-30T07:34:56.954Z,22.4
2017-04-30T07:35:41.138Z,22.42
2017-04-30T07:36:25.956Z,22.45
2017-04-30T07:37:09.722Z,22.54
2017-04-30T07:37:54.485Z,22.55
2017-04-30T07:38:37.625Z,22.51
2017-04-30T07:39:21.096Z,22.54
2017-04-30T07:40:04.917Z,22.51
2017-04-30T07:40:48.998Z,22.64
2017-04-30T07:41:33.010Z,22.6
2017-04-30T07:42:17.988Z,22.49
2017-04-30T07:43:00.995Z,22.58
2017-04-30T07:43:43.494Z,22.6
2017-04-30T07:44:27.316Z,22.57
2017-04-30T07:45:10.973Z,22.62
2017-04-30T07:45:53.467Z,22.62
2017-04-30T07:46:37.284Z,22.61
2017-04-30T07:47:19.298Z,22.68
2017-04-30T07:48:03.027Z,22.65
2017-04-30T07:48:47.010Z,22.68
2017-04-30T07:49:30.998Z,22.64
2017-04-30T07:50:15.118Z,22.73
2017-04-30T07:50:59.485Z,22.68
2017-04-30T07:51:44.487Z,22.85
2017-04-30T07:52:27.545Z,22.83
2017-04-30T07:53:12.491Z,22.83
2017-04-30T07:53:54.633Z,22.73
2017-04-30T07:54:38.516Z,22.8
2017-04-30T07:55:21.836Z,22.79
2017-04-30T07:56:04.966Z,22.75
2017-04-30T07:56:50.015Z,22.85
2017-04-30T07:57:32.494Z,22.85
2017-04-30T07:58:16.977Z,22.83
2017-04-30T07:59:01.965Z,22.85
2017-04-30T07:59:46.983Z,22.82
2017-04-30T08:00:31.856Z,22.85
2017-04-30T08:01:17.014Z,22.88
2017-04-30T08:02:00.833Z,22.9
2017-04-30T08:02:43.996Z,22.9
2017-04-30T08:03:40.649Z,22.98
2017-04-30T08:04:22.455Z,23.04
2017-04-30T08:05:06.477Z,22.95
2017-04-30T08:05:49.471Z,23
2017-04-30T08:06:34.491Z,23.07
2017-04-30T08:07:19.018Z,23.09
2017-04-30T08:08:02.130Z,23.05
2017-04-30T08:08:46.516Z,23.1
2017-04-30T08:09:31.339Z,23.12
2017-04-30T08:10:16.016Z,23.15
2017-04-30T08:10:59.480Z,23.19
2017-04-30T08:11:42.868Z,23.12
2017-04-30T08:12:26.971Z,23.16
2017-04-30T08:13:11.001Z,23.13
2017-04-30T08:13:53.881Z,23.16
2017-04-30T08:14:37.164Z,23.2
2017-04-30T08:15:19.996Z,23.1
2017-04-30T08:16:03.470Z,23.12
2017-04-30T08:16:46.498Z,23.12
2017-04-30T08:17:29.529Z,23.2
2017-04-30T08:18:12.822Z,23.2
2017-04-30T08:18:55.479Z,23.27
2017-04-30T08:19:39.477Z,23.23
2017-04-30T08:20:22.190Z,23.28
2017-04-30T08:21:04.999Z,23.23
2017-04-30T08:21:47.078Z,23.31
2017-04-30T08:22:30.491Z,23.22
2017-04-30T08:23:13.487Z,23.2
2017-04-30T08:23:57.904Z,23.19
2017-04-30T08:24:40.983Z,23.17
2017-04-30T08:25:25.973Z,23.22
2017-04-30T08:26:10.989Z,23.25
2017-04-30T08:26:55.009Z,23.27
2017-04-30T08:27:39.002Z,23.32
2017-04-30T08:28:22.020Z,23.38
2017-04-30T08:29:05.516Z,23.42
2017-04-30T08:29:48.512Z,23.36
2017-04-30T08:30:29.953Z,23.35
2017-04-30T08:31:12.254Z,23.43
2017-04-30T08:31:54.194Z,23.4
2017-04-30T08:32:35.336Z,23.4
2017-04-30T08:34:52.662Z,23.31
2017-04-30T08:35:37.017Z,23.33
2017-04-30T08:36:21.001Z,23.4
2017-04-30T08:37:03.953Z,23.43
2017-04-30T08:37:46.991Z,23.38
2017-04-30T08:38:30.963Z,23.42
2017-04-30T08:39:14.427Z,23.31
2017-04-30T08:39:57.987Z,23.36
2017-04-30T08:40:42.767Z,23.39
2017-04-30T08:41:26.485Z,23.43
2017-04-30T08:42:10.472Z,23.4
2017-04-30T08:42:54.515Z,23.4
2017-04-30T08:43:39.032Z,23.43
2017-04-30T08:44:21.967Z,23.46
2017-04-30T08:45:03.652Z,23.43
2017-04-30T08:45:48.457Z,23.47
2017-04-30T08:46:31.213Z,23.42
2017-04-30T08:47:14.462Z,23.47
2017-04-30T08:47:59.055Z,23.39
2017-04-30T08:48:41.498Z,23.46
2017-04-30T08:49:24.036Z,23.46
2017-04-30T08:50:06.289Z,23.53
2017-04-30T08:50:49.511Z,23.51
2017-04-30T08:51:32.457Z,23.51
2017-04-30T08:52:16.463Z,23.42
2017-04-30T08:53:01.018Z,23.51
2017-04-30T08:54:52.301Z,23.51
2017-04-30T08:55:35.865Z,23.48
2017-04-30T08:56:20.808Z,23.46
2017-04-30T08:57:04.797Z,23.55
2017-04-30T08:57:48.770Z,23.5
2017-04-30T08:58:31.518Z,23.5
2017-04-30T08:59:14.777Z,23.48
2017-04-30T08:59:57.960Z,23.48
2017-04-30T09:00:42.233Z,23.5
2017-04-30T09:01:25.791Z,23.54
2017-04-30T09:02:09.044Z,23.5
2017-04-30T09:02:52.804Z,23.5
2017-04-30T09:03:36.457Z,23.47
2017-04-30T09:04:18.821Z,23.48
2017-04-30T09:05:02.492Z,23.42
2017-04-30T09:05:44.503Z,23.48
2017-04-30T09:06:28.336Z,23.5
2017-04-30T09:07:12.894Z,23.46
2017-04-30T09:07:57.801Z,23.43
2017-04-30T09:08:41.789Z,23.51
2017-04-30T09:09:26.837Z,23.47
2017-04-30T09:10:11.399Z,23.36
2017-04-30T09:10:56.288Z,23.42
2017-04-30T09:11:40.800Z,23.4
2017-04-30T09:12:24.838Z,23.47
2017-04-30T09:13:08.300Z,23.33
2017-04-30T09:13:52.025Z,23.4
2017-04-30T09:14:35.798Z,23.38
2017-04-30T09:15:20.827Z,23.39
2017-04-30T09:16:04.301Z,23.39
2017-04-30T09:16:48.870Z,23.33
2017-04-30T09:17:31.809Z,23.38
2017-04-30T09:18:16.783Z,23.39
2017-04-30T09:18:58.560Z,23.33
2017-04-30T09:19:42.336Z,23.38
2017-04-30T09:20:27.848Z,23.28
2017-04-30T09:21:10.833Z,23.31
2017-04-30T09:21:55.326Z,23.22
2017-04-30T09:22:40.344Z,23.28
2017-04-30T09:23:24.802Z,23.27
2017-04-30T09:24:23.331Z,23.27
2017-04-30T09:25:05.110Z,23.19
2017-04-30T09:25:48.066Z,23.19
2017-04-30T09:26:32.875Z,23.16
2017-04-30T09:27:16.261Z,23.12
2017-04-30T09:28:00.786Z,23.23
2017-04-30T09:28:42.885Z,23.12
2017-04-30T09:29:25.825Z,23.13
2017-04-30T09:30:09.524Z,23.15
2017-04-30T09:30:53.793Z,23.19
2017-04-30T09:31:37.848Z,23.15
2017-04-30T09:32:20.790Z,23.16
2017-04-30T09:33:04.826Z,23.1